Weather History for Bogalusa, LA

Change the Weather History Date:

Thursday, December 20, 2012

  Actual Average Record
Temperature  
Mean Temperature 56 °F -  
Max Temperature 72 °F 64 °F 79 °F (2013)
Min Temperature 39 °F 41 °F 39 °F (2012)
Degree Days  
Heating Degree Days 10    
Growing Degree Days 6 (Base 50)    
Moisture  
Dew Point 44 °F    
Average Humidity 64    
Maximum Humidity 100    
Minimum Humidity 32    
Precipitation  
Precipitation 0.09 in - - ()
Sea Level Pressure  
Sea Level Pressure 30.01 in    
Wind  
Wind Speed 13 mph (WNW)    
Max Wind Speed 22 mph    
Max Gust Speed 44 mph    
Visibility 10 miles    
Events Rain    
Averages and records for this station are not official NWS values.
T = Trace of Precipitation, MM = Missing Value Source: NWS Daily Summary

Daily Weather History Graph

Daily Weather History Graph

Search for Another Location

Airport:

Trip Planner

Search our weather history database for the weather conditions in past years. The results will help you decide how hot, cold, wet, or windy it might be!

Date:

Astronomy

Dec. 20, 2012 Rise Set
Actual Time 6:52 AM CST 5:01 PM CST
Civil Twilight 6:26 AM CST 5:28 PM CST
Nautical Twilight 5:56 AM CST 5:58 PM CST
Astronomical Twilight 5:26 AM CST 6:28 PM CST
Moon 12:00 PM CST (12/20) 12:00 AM CST (12/20)
Length of Visible Light 11h 02m
Length of Day
10h 09m
First Quarter, 55% of the Moon is Illuminated
Dec 20
First Quarter
Dec 28
Full
Jan 4
Last Quarter
Jan 11
New
Jan 18
First Quarter

Hourly Weather History & Observations

Time (CST) Temp. Windchill Dew Point Humidity Pressure Visibility Wind Dir Wind Speed Gust Speed Precip Events Conditions
12:15 AM 70.3 °F - 70.3 °F 100% 29.86 in 7.0 mi South 11.5 mph 19.6 mph N/A   Overcast
12:35 AM 70.9 °F - 70.9 °F 100% 29.85 in 7.0 mi SSW 17.3 mph 24.2 mph N/A   Overcast
12:55 AM 70.9 °F - 70.9 °F 100% 29.85 in 7.0 mi SSW 16.1 mph 21.9 mph 0.01 in Rain Light Rain
1:15 AM 70.9 °F - 70.9 °F 100% 29.85 in 10.0 mi SSW 12.7 mph 24.2 mph 0.01 in Rain Light Rain
1:35 AM 70.9 °F - 70.9 °F 100% 29.85 in 10.0 mi SSW 13.8 mph 19.6 mph 0.01 in   Light Drizzle
1:55 AM 71.1 °F - 71.1 °F 100% 29.85 in 10.0 mi South 12.7 mph 18.4 mph 0.01 in Rain Light Rain
2:15 AM 71.6 °F - 71.6 °F 100% 29.84 in 10.0 mi SSW 13.8 mph 18.4 mph N/A   Overcast
2:35 AM 71.8 °F - 71.8 °F 100% 29.84 in 10.0 mi SSW 12.7 mph 23.0 mph N/A   Overcast
2:55 AM 72.1 °F - 72.1 °F 100% 29.84 in 10.0 mi SSW 12.7 mph 21.9 mph N/A   Overcast
3:15 AM 72.5 °F - 72.5 °F 100% 29.85 in 10.0 mi SSW 15.0 mph 20.7 mph N/A   Overcast
3:35 AM 72.5 °F - 72.5 °F 100% 29.84 in 7.0 mi SSW 17.3 mph 21.9 mph 0.02 in Rain Heavy Rain
3:55 AM 72.0 °F - 72.0 °F 100% 29.84 in 10.0 mi SSW 13.8 mph 21.9 mph 0.03 in   Light Drizzle
4:15 AM 71.8 °F - 71.8 °F 100% 29.83 in 10.0 mi SSW 16.1 mph - N/A   Overcast
4:35 AM 71.8 °F - 71.8 °F 100% 29.83 in 10.0 mi SSW 11.5 mph 20.7 mph N/A Rain Light Rain
4:55 AM 71.8 °F - 71.8 °F 100% 29.82 in 10.0 mi SSW 15.0 mph 23.0 mph N/A   Overcast
5:15 AM 72.0 °F - 72.0 °F 100% 29.82 in 10.0 mi SSW 12.7 mph 21.9 mph N/A   Overcast
5:35 AM 72.0 °F - 72.0 °F 100% 29.82 in 10.0 mi SW 13.8 mph 21.9 mph N/A   Overcast
5:55 AM 72.0 °F - 72.0 °F 100% 29.82 in 10.0 mi SSW 16.1 mph 25.3 mph N/A   Overcast
6:15 AM 72.1 °F - 72.1 °F 100% 29.83 in 10.0 mi SW 16.1 mph 25.3 mph N/A   Overcast
6:35 AM 72.0 °F - 72.0 °F 100% 29.84 in 10.0 mi SSW 17.3 mph 26.5 mph N/A Rain Light Rain
6:55 AM 68.9 °F - 68.9 °F 100% 29.83 in 10.0 mi SW 17.3 mph 24.2 mph 0.01 in Rain Light Rain
7:15 AM 68.4 °F - 67.8 °F 98% 29.83 in 10.0 mi WSW 9.2 mph 20.7 mph N/A   Mostly Cloudy
7:35 AM 60.1 °F - 47.3 °F 63% 29.90 in 10.0 mi WNW 13.8 mph 43.7 mph N/A   Mostly Cloudy
7:55 AM 55.4 °F - 46.0 °F 71% 29.91 in 7.0 mi NW 18.4 mph 27.6 mph 0.01 in Rain Light Rain
8:15 AM 53.6 °F - 45.9 °F 75% 29.92 in 10.0 mi NW 6.9 mph - 0.02 in Rain Light Rain
8:35 AM 54.1 °F - 48.4 °F 81% 29.94 in 10.0 mi SW 3.5 mph - 0.02 in   Clear
8:55 AM 55.0 °F - 47.5 °F 76% 29.95 in 10.0 mi WNW 8.1 mph - 0.02 in   Unknown
9:15 AM 56.3 °F - 46.6 °F 70% 29.96 in 10.0 mi WNW 9.2 mph - N/A   Unknown
9:35 AM 57.2 °F - 45.7 °F 65% 29.96 in 10.0 mi NW 10.4 mph 17.3 mph N/A   Unknown
9:55 AM 57.7 °F - 46.0 °F 65% 29.96 in 10.0 mi WNW 9.2 mph - N/A   Unknown
10:15 AM 57.2 °F - 44.6 °F 63% 29.96 in 10.0 mi NW 8.1 mph - N/A   Unknown
10:35 AM 58.5 °F - 45.0 °F 61% 29.97 in 10.0 mi WNW 8.1 mph 16.1 mph N/A   Unknown
10:55 AM 59.7 °F - 42.4 °F 53% 29.96 in 10.0 mi NW 16.1 mph 24.2 mph N/A   Unknown
11:15 AM 59.9 °F - 42.3 °F 52% 29.97 in 10.0 mi West 17.3 mph 21.9 mph N/A   Unknown
11:35 AM 59.5 °F - 36.5 °F 42% 29.97 in 10.0 mi WNW 17.3 mph 26.5 mph N/A   Unknown
11:55 AM 60.1 °F - 33.6 °F 37% 29.97 in 10.0 mi WNW 21.9 mph 29.9 mph N/A   Unknown
12:15 PM 59.0 °F - 31.8 °F 36% 29.97 in 10.0 mi WNW 16.1 mph 29.9 mph N/A   Unknown
12:35 PM 59.5 °F - 32.4 °F 36% 29.97 in 10.0 mi NW 15.0 mph 27.6 mph N/A   Unknown
12:55 PM 59.7 °F - 32.7 °F 36% 29.97 in 10.0 mi NW 12.7 mph 25.3 mph N/A   Unknown
1:15 PM 59.0 °F - 30.7 °F 34% 29.98 in 10.0 mi NNW 20.7 mph 27.6 mph N/A   Unknown
1:35 PM 58.8 °F - 29.3 °F 33% 29.98 in 10.0 mi NW 17.3 mph 31.1 mph N/A   Unknown
1:55 PM 58.1 °F - 29.1 °F 33% 29.99 in 10.0 mi NW 18.4 mph 29.9 mph N/A   Unknown
2:15 PM 57.2 °F - 27.9 °F 33% 30.00 in 10.0 mi NNW 21.9 mph 34.5 mph N/A   Unknown
2:35 PM 56.8 °F - 27.1 °F 32% 30.01 in 10.0 mi NW 20.7 mph 36.8 mph N/A   Unknown
2:55 PM 56.5 °F - 28.0 °F 34% 30.02 in 10.0 mi NW 21.9 mph 29.9 mph N/A   Unknown
3:15 PM 56.5 °F - 28.4 °F 34% 30.03 in 10.0 mi NW 18.4 mph 23.0 mph N/A   Unknown
3:35 PM 55.8 °F - 27.3 °F 34% 30.05 in 10.0 mi NW 13.8 mph 27.6 mph N/A   Unknown
3:55 PM 55.2 °F - 26.8 °F 34% 30.06 in 10.0 mi NW 19.6 mph 28.8 mph N/A   Unknown
4:15 PM 54.5 °F - 27.1 °F 35% 30.07 in 10.0 mi NNW 13.8 mph 21.9 mph N/A   Clear
4:35 PM 53.6 °F - 27.5 °F 37% 30.08 in 10.0 mi NNW 9.2 mph 19.6 mph N/A   Clear
4:55 PM 52.0 °F - 28.0 °F 40% 30.10 in 10.0 mi NW 13.8 mph 19.6 mph N/A   Clear
5:15 PM 51.1 °F - 27.5 °F 40% 30.12 in 10.0 mi NW 12.7 mph 23.0 mph N/A   Clear
5:35 PM 50.2 °F - 27.3 °F 41% 30.13 in 10.0 mi NNW 10.4 mph 20.7 mph N/A   Unknown
5:55 PM 48.6 °F - 28.9 °F 47% 30.15 in 10.0 mi NW 6.9 mph - N/A   Unknown
6:15 PM 48.4 °F - 28.9 °F 47% 30.16 in 10.0 mi NNW 9.2 mph - N/A   Unknown
6:35 PM 48.6 °F - 28.4 °F 46% 30.18 in 10.0 mi NNW 10.4 mph 16.1 mph N/A   Unknown
6:55 PM 48.9 °F - 27.3 °F 43% 30.19 in 10.0 mi NW 11.5 mph 24.2 mph N/A   Unknown
7:15 PM 48.4 °F - 26.6 °F 43% 30.20 in 10.0 mi NW 17.3 mph 24.2 mph N/A   Unknown
7:35 PM 48.0 °F - 26.4 °F 43% 30.21 in 10.0 mi NW 12.7 mph 24.2 mph N/A   Unknown
7:55 PM 47.7 °F - 25.9 °F 43% 30.23 in 10.0 mi NW 12.7 mph 19.6 mph N/A   Unknown
8:15 PM 46.8 °F - 27.0 °F 46% 30.24 in 10.0 mi NW 6.9 mph 16.1 mph N/A   Unknown
8:35 PM 46.0 °F 41.9 °F 27.7 °F 49% 30.25 in 10.0 mi NW 8.1 mph - N/A   Unknown
8:55 PM 45.9 °F 42.3 °F 26.6 °F 47% 30.26 in 10.0 mi NW 6.9 mph 17.3 mph N/A   Unknown
9:15 PM 44.6 °F 40.7 °F 26.4 °F 49% 30.26 in 10.0 mi NW 6.9 mph - N/A   Unknown
9:35 PM 43.9 °F 40.5 °F 26.6 °F 51% 30.26 in 10.0 mi NW 5.8 mph - N/A   Unknown
9:55 PM 43.3 °F 39.9 °F 26.4 °F 51% 30.27 in 10.0 mi WNW 5.8 mph - N/A   Unknown
10:15 PM 42.6 °F 39.9 °F 26.6 °F 53% 30.27 in 10.0 mi WNW 4.6 mph - N/A   Unknown
10:35 PM 41.9 °F 39.0 °F 26.8 °F 55% 30.28 in 10.0 mi WNW 4.6 mph - N/A   Unknown
10:55 PM 41.0 °F 37.1 °F 27.5 °F 59% 30.29 in 10.0 mi West 5.8 mph - N/A   Unknown
11:15 PM 40.1 °F 36.9 °F 27.5 °F 61% 30.29 in 10.0 mi West 4.6 mph - N/A   Unknown
11:35 PM 39.6 °F 35.4 °F 27.5 °F 62% 30.29 in 10.0 mi West 5.8 mph - N/A   Unknown
11:55 PM 39.0 °F 36.8 °F 27.1 °F 62% 30.29 in 10.0 mi West 3.5 mph - N/A   Unknown